Time;durP1;ratioP1;P1;durP2;ratioP2;P2;SDS_P1;SDS_P2;PMS_P1;PMS_P2;Temp;Humidity;BMP_temperature;BMP_pressure;BME280_temperature;BME280_humidity;BME280_pressure;Samples;Min_cycle;Max_cycle;Signal;HPM_P1;HPM_P2
2022/12/27 00:00:00;;;;;;;7.80;7.00;;;;;;;6.09;100.00;99077.46;436306;1274;142241;-65
2022/12/27 00:10:08;;;;;;;7.40;6.30;;;;;;;6.06;100.00;99072.27;435404;1282;208892;-64
2022/12/27 00:20:14;;;;;;;12.80;7.60;;;;;;;6.08;100.00;99076.86;434859;1281;141158;-65
2022/12/27 00:30:20;;;;;;;7.90;6.20;;;;;;;6.12;100.00;99087.60;429691;1281;141119;-64
2022/12/27 00:40:26;;;;;;;11.40;7.20;;;;;;;6.14;100.00;99100.52;419187;1275;141996;-64
2022/12/27 00:50:32;;;;;;;4.90;3.50;;;;;;;6.07;100.00;99145.00;435921;1280;141618;-65
2022/12/27 01:00:38;;;;;;;3.70;2.10;;;;;;;5.86;100.00;99155.96;435378;1283;141389;-64
2022/12/27 01:10:44;;;;;;;2.10;1.40;;;;;;;5.81;100.00;99156.73;421701;1282;166680;-64
2022/12/27 01:20:50;;;;;;;2.20;1.20;;;;;;;5.76;100.00;99154.77;419865;1274;140814;-64
2022/12/27 01:30:56;;;;;;;2.40;1.60;;;;;;;5.65;100.00;99155.30;435380;1277;142450;-64
2022/12/27 01:42:50;;;;;;;2.60;2.10;;;;;;;5.49;100.00;99148.77;436097;1283;142542;-65
2022/12/27 01:51:28;;;;;;;2.50;2.20;;;;;;;5.46;100.00;99134.54;428211;1274;142049;-64
2022/12/27 02:01:39;;;;;;;3.00;2.80;;;;;;;5.43;100.00;99140.40;419057;1274;142134;-65
2022/12/27 02:11:51;;;;;;;4.40;3.40;;;;;;;5.44;100.00;99145.91;419072;1275;141531;-65
2022/12/27 02:24:01;;;;;;;4.90;2.80;;;;;;;5.47;100.00;99159.63;429707;1282;198880;-65
2022/12/27 02:33:04;;;;;;;3.10;2.80;;;;;;;5.49;100.00;99168.92;424727;1274;142544;-65
2022/12/27 02:53:46;;;;;;;2.00;1.90;;;;;;;5.39;100.00;99207.08;419879;1274;141716;-65
2022/12/27 03:04:08;;;;;;;2.30;1.50;;;;;;;4.94;100.00;99254.13;420838;1275;141976;-64
2022/12/27 03:35:17;;;;;;;2.20;1.10;;;;;;;3.39;100.00;99300.48;426725;1275;141482;-65
2022/12/27 03:46:32;;;;;;;2.40;1.20;;;;;;;3.09;100.00;99330.86;422417;1275;141399;-64
2022/12/27 03:55:49;;;;;;;2.20;1.40;;;;;;;2.91;100.00;99376.13;420377;1275;142566;-64
2022/12/27 04:05:55;;;;;;;2.60;1.80;;;;;;;2.68;100.00;99405.96;425005;1274;146147;-65
2022/12/27 04:36:49;;;;;;;4.20;1.70;;;;;;;2.26;100.00;99467.30;421218;1275;145443;-64
2022/12/27 04:57:18;;;;;;;4.70;1.70;;;;;;;2.02;100.00;99480.30;422722;1275;142884;-64
2022/12/27 05:17:48;;;;;;;5.10;1.20;;;;;;;1.80;100.00;99512.02;426235;1274;141799;-64
2022/12/27 05:27:54;;;;;;;10.40;2.00;;;;;;;1.66;100.00;99515.53;424085;1274;145193;-63
2022/12/27 05:38:00;;;;;;;8.10;2.60;;;;;;;1.59;100.00;99523.85;420401;1275;141739;-64
2022/12/27 05:48:07;;;;;;;6.40;1.90;;;;;;;1.47;100.00;99541.42;419270;1274;197208;-64
2022/12/27 05:58:13;;;;;;;7.80;3.00;;;;;;;1.24;100.00;99552.88;427164;1274;141419;-64
2022/12/27 06:08:19;;;;;;;5.70;2.00;;;;;;;1.16;100.00;99569.64;419494;1274;142545;-63
2022/12/27 06:18:25;;;;;;;7.20;2.50;;;;;;;1.23;100.00;99591.90;419201;1274;142384;-63
2022/12/27 06:28:31;;;;;;;8.80;2.50;;;;;;;1.47;100.00;99614.73;421557;1274;141032;-64
2022/12/27 06:38:37;;;;;;;8.60;2.30;;;;;;;1.61;100.00;99625.93;420302;1274;141612;-64
2022/12/27 06:48:44;;;;;;;8.80;2.00;;;;;;;1.70;100.00;99646.77;424190;1275;141210;-64
2022/12/27 06:58:51;;;;;;;5.80;2.00;;;;;;;1.78;100.00;99666.56;424647;1275;142211;-64
2022/12/27 07:08:56;;;;;;;;;;;;;;;1.88;100.00;99685.45;427559;1275;141750;-65
2022/12/27 07:19:02;;;;;;;6.90;2.30;;;;;;;2.01;100.00;99688.59;429116;1281;128780;-64
2022/12/27 07:29:08;;;;;;;8.00;2.30;;;;;;;2.11;100.00;99700.39;424417;1275;141671;-64
2022/12/27 07:39:14;;;;;;;8.30;2.70;;;;;;;2.19;100.00;99709.84;425990;1275;142506;-64
2022/12/27 07:49:20;;;;;;;6.50;2.50;;;;;;;2.22;100.00;99726.02;422875;1281;141992;-64
2022/12/27 07:59:26;;;;;;;4.60;2.50;;;;;;;2.30;100.00;99742.70;425412;1274;141471;-65
2022/12/27 08:09:36;;;;;;;7.30;3.40;;;;;;;2.39;100.00;99751.10;418726;1275;141638;-65
2022/12/27 08:19:42;;;;;;;9.80;3.20;;;;;;;2.47;100.00;99770.59;428526;1278;141660;-65
2022/12/27 08:29:48;;;;;;;7.00;2.60;;;;;;;2.59;100.00;99784.96;436269;1283;141208;-65
2022/12/27 08:39:54;;;;;;;6.90;3.50;;;;;;;2.72;100.00;99795.83;429036;1277;141840;-65
2022/12/27 08:50:09;;;;;;;11.40;3.80;;;;;;;2.75;100.00;99811.13;435134;1282;142342;-64
2022/12/27 09:00:16;;;;;;;7.50;3.20;;;;;;;2.83;100.00;99827.84;435506;1282;142692;-65
2022/12/27 09:10:24;;;;;;;8.40;2.80;;;;;;;2.95;100.00;99850.17;433697;1284;141565;-64
2022/12/27 09:20:30;;;;;;;6.10;2.80;;;;;;;2.88;99.67;99866.46;419680;1275;140793;-65
2022/12/27 09:30:36;;;;;;;5.80;3.40;;;;;;;2.81;99.75;99884.27;425124;1274;141678;-65
2022/12/27 09:40:50;;;;;;;11.10;4.90;;;;;;;2.63;99.28;99898.73;436175;1271;142194;-65
2022/12/27 09:51:00;;;;;;;9.60;4.10;;;;;;;2.78;99.27;99891.27;434271;1281;142630;-65
2022/12/27 10:01:18;;;;;;;7.30;3.90;;;;;;;2.79;98.41;99890.20;435637;1280;200524;-66
2022/12/27 10:11:36;;;;;;;6.30;3.10;;;;;;;2.71;97.97;99894.20;436121;1284;141098;-65
2022/12/27 10:21:56;;;;;;;4.70;3.90;;;;;;;2.65;98.10;99891.25;434144;1283;145028;-64
2022/12/27 10:32:02;;;;;;;10.00;3.90;;;;;;;2.72;98.07;99904.91;436155;1281;142100;-64
2022/12/27 10:42:24;;;;;;;5.50;3.60;;;;;;;2.76;97.77;99907.05;435356;1281;144504;-66
2022/12/27 10:52:34;;;;;;;7.30;3.70;;;;;;;2.91;97.54;99896.29;436164;1282;141843;-64
2022/12/27 11:02:50;;;;;;;5.10;3.80;;;;;;;3.01;97.34;99898.42;436314;1280;141766;-65
2022/12/27 11:13:02;;;;;;;5.30;2.90;;;;;;;3.26;96.85;99901.88;435693;1283;142634;-65
2022/12/27 11:23:15;;;;;;;4.40;2.90;;;;;;;3.19;96.30;99899.83;420179;1281;141443;-65
2022/12/27 11:33:24;;;;;;;7.60;3.80;;;;;;;3.06;96.01;99901.73;430986;1279;142001;-63
2022/12/27 11:43:33;;;;;;;6.60;3.10;;;;;;;3.05;96.02;99903.33;431722;1281;141531;-64
2022/12/27 11:54:10;;;;;;;7.10;3.10;;;;;;;2.98;95.77;99903.16;424154;1275;143037;-64
2022/12/27 12:04:38;;;;;;;9.50;2.60;;;;;;;2.86;95.74;99906.80;435872;1280;209731;-64
2022/12/27 12:15:01;;;;;;;9.70;3.50;;;;;;;2.75;95.51;99910.19;436423;1284;141732;-64
2022/12/27 12:25:36;;;;;;;4.90;2.80;;;;;;;2.74;95.48;99915.76;435694;1277;141216;-66
2022/12/27 12:36:07;;;;;;;6.10;3.00;;;;;;;2.75;95.36;99925.05;436298;1281;142589;-64
2022/12/27 12:46:26;;;;;;;6.80;3.20;;;;;;;2.76;95.40;99920.88;435954;1282;141230;-66
2022/12/27 12:56:47;;;;;;;5.60;2.80;;;;;;;2.85;95.32;99926.88;434039;1280;141212;-66
2022/12/27 13:07:11;;;;;;;7.30;3.90;;;;;;;2.89;95.34;99921.42;435521;1280;141482;-66
2022/12/27 13:17:24;;;;;;;4.90;2.70;;;;;;;2.89;95.23;99914.48;436139;1289;164076;-66
2022/12/27 13:27:39;;;;;;;4.90;2.50;;;;;;;2.88;95.05;99908.98;435643;1281;143372;-66
2022/12/27 13:38:03;;;;;;;4.30;2.60;;;;;;;2.82;95.19;99913.13;436300;1282;141269;-64
2022/12/27 13:48:36;;;;;;;5.50;2.60;;;;;;;2.78;94.66;99930.49;432411;1282;141696;-64
2022/12/27 13:59:05;;;;;;;5.80;2.90;;;;;;;2.81;94.52;99949.63;419934;1280;140645;-65
2022/12/27 14:09:40;;;;;;;6.30;2.70;;;;;;;2.78;94.22;99955.73;435944;1287;141179;-65
2022/12/27 14:20:06;;;;;;;3.30;1.90;;;;;;;2.79;94.09;99966.11;436636;1288;141185;-65
2022/12/27 14:30:31;;;;;;;3.30;2.50;;;;;;;2.78;93.94;99973.91;435904;1288;142161;-65
2022/12/27 14:40:55;;;;;;;5.40;3.50;;;;;;;2.74;94.03;99987.67;436681;1286;142825;-65
2022/12/27 14:51:28;;;;;;;5.60;2.50;;;;;;;2.72;93.64;99997.57;428962;1281;142305;-65
2022/12/27 15:02:16;;;;;;;6.50;2.60;;;;;;;2.73;93.13;100010.52;436312;1281;336763;-65
2022/12/27 15:12:34;;;;;;;4.80;2.20;;;;;;;2.76;92.25;100013.89;435848;1287;142719;-65
2022/12/27 15:22:52;;;;;;;3.90;2.80;;;;;;;2.78;92.88;100018.52;436639;1285;141883;-65
2022/12/27 15:33:05;;;;;;;7.00;3.00;;;;;;;2.74;93.36;100019.66;436488;1287;141355;-65
2022/12/27 15:43:27;;;;;;;6.60;3.00;;;;;;;2.69;93.58;100026.36;436196;1282;142294;-65
2022/12/27 15:53:48;;;;;;;7.00;3.40;;;;;;;2.63;93.14;100031.14;436060;1280;141855;-65
2022/12/27 16:03:57;;;;;;;4.20;2.70;;;;;;;2.64;93.12;100035.27;435784;1275;145461;-65
2022/12/27 16:14:28;;;;;;;5.80;2.80;;;;;;;2.65;92.76;100034.58;436587;1282;142380;-64
2022/12/27 16:24:35;;;;;;;3.60;2.60;;;;;;;2.71;92.44;100035.09;430865;1284;141797;-64
2022/12/27 16:34:42;;;;;;;10.50;3.50;;;;;;;2.67;92.09;100037.13;427864;1268;141238;-65
2022/12/27 16:45:01;;;;;;;7.90;3.00;;;;;;;2.60;91.72;100038.48;436602;1287;141730;-65
2022/12/27 16:55:26;;;;;;;5.50;2.80;;;;;;;2.53;91.39;100046.60;435218;1283;197162;-64
2022/12/27 17:05:37;;;;;;;4.80;2.90;;;;;;;2.52;91.47;100053.02;436640;1281;141811;-64
2022/12/27 17:16:06;;;;;;;4.30;2.60;;;;;;;2.49;91.64;100057.92;435948;1282;141697;-65
2022/12/27 17:26:44;;;;;;;6.10;4.70;;;;;;;2.43;91.50;100064.98;436619;1280;154311;-64
2022/12/27 17:37:00;;;;;;;6.10;4.00;;;;;;;2.36;91.78;100074.99;435939;1274;142089;-64
2022/12/27 17:47:18;;;;;;;5.50;3.00;;;;;;;2.30;92.04;100095.52;436494;1280;142233;-64
2022/12/27 18:08:00;;;;;;;6.10;3.50;;;;;;;2.25;91.86;100090.27;436411;1280;142992;-64
2022/12/27 18:18:09;;;;;;;5.60;4.00;;;;;;;2.23;91.98;100104.11;435658;1281;141231;-64
2022/12/27 18:28:18;;;;;;;8.70;4.10;;;;;;;2.18;92.00;100110.78;436353;1280;142010;-65
2022/12/27 18:38:29;;;;;;;8.70;3.90;;;;;;;2.11;92.31;100129.24;436395;1277;142119;-65
2022/12/27 18:48:36;;;;;;;9.30;4.60;;;;;;;2.15;92.60;100137.63;435477;1283;142662;-65
2022/12/27 18:59:00;;;;;;;6.40;3.30;;;;;;;2.19;92.78;100144.27;433993;1284;142510;-66
2022/12/27 19:09:13;;;;;;;5.80;3.90;;;;;;;2.20;92.52;100143.38;435498;1282;141426;-64
2022/12/27 19:19:24;;;;;;;7.90;4.60;;;;;;;2.20;92.93;100146.33;436188;1284;142312;-64
2022/12/27 19:29:31;;;;;;;9.20;5.30;;;;;;;2.20;92.63;100153.59;436339;1283;141933;-64
2022/12/27 19:39:47;;;;;;;;;;;;;;;2.24;92.53;100166.13;427075;1274;142340;-69
2022/12/27 19:49:53;;;;;;;10.30;5.00;;;;;;;2.27;92.37;100178.48;436088;1277;128624;-67
2022/12/27 19:59:59;;;;;;;13.70;4.90;;;;;;;2.27;92.62;100190.41;435760;1283;141696;-66
2022/12/27 20:10:14;;;;;;;8.10;4.10;;;;;;;2.21;92.56;100196.56;435397;1282;199987;-66
2022/12/27 20:20:21;;;;;;;6.90;4.10;;;;;;;2.16;92.65;100204.11;436078;1274;142524;-66
2022/12/27 20:30:29;;;;;;;6.60;3.50;;;;;;;2.09;92.87;100197.67;435340;1285;143165;-66
2022/12/27 20:40:35;;;;;;;7.70;4.90;;;;;;;2.06;93.04;100198.09;436223;1281;142825;-66
2022/12/27 20:50:41;;;;;;;7.20;4.10;;;;;;;1.99;93.31;100196.64;436367;1274;141206;-66
2022/12/27 21:00:47;;;;;;;14.40;5.60;;;;;;;1.68;92.81;100198.24;435208;1278;143601;-67
2022/12/27 21:10:53;;;;;;;11.00;6.20;;;;;;;1.19;93.08;100202.84;430097;1274;142338;-67
2022/12/27 21:21:04;;;;;;;9.60;5.60;;;;;;;0.74;93.72;100203.30;424477;1275;142352;-67
2022/12/27 21:31:11;;;;;;;9.80;4.20;;;;;;;0.52;94.62;100207.55;435837;1281;208717;-67
2022/12/27 21:41:20;;;;;;;8.20;4.50;;;;;;;0.62;94.96;100213.80;436352;1282;141031;-67
2022/12/27 21:51:28;;;;;;;9.10;4.70;;;;;;;0.73;95.44;100220.22;435664;1282;141114;-67
2022/12/27 22:01:34;;;;;;;7.60;5.10;;;;;;;0.91;95.60;100215.32;436206;1281;142334;-66
2022/12/27 22:12:00;;;;;;;7.40;5.40;;;;;;;1.03;95.40;100211.70;436178;1285;142302;-67
2022/12/27 22:22:06;;;;;;;5.80;3.90;;;;;;;1.04;95.32;100214.95;435845;1281;207026;-67
2022/12/27 22:32:13;;;;;;;5.50;4.30;;;;;;;1.05;95.53;100222.88;436361;1274;153319;-68
2022/12/27 22:42:19;;;;;;;7.60;4.30;;;;;;;0.98;95.35;100228.15;435596;1278;143067;-67
2022/12/27 22:52:25;;;;;;;7.40;5.40;;;;;;;0.93;95.71;100234.42;430410;1274;141405;-67
2022/12/27 23:02:31;;;;;;;12.40;6.70;;;;;;;1.00;95.88;100234.50;420834;1275;141226;-67
2022/12/27 23:12:37;;;;;;;12.80;7.20;;;;;;;0.76;95.37;100229.13;429575;1275;141102;-66
2022/12/27 23:22:46;;;;;;;9.50;7.10;;;;;;;0.30;95.55;100236.06;435134;1281;142573;-67
2022/12/27 23:32:53;;;;;;;10.00;5.50;;;;;;;0.33;96.28;100234.83;436295;1274;141571;-67
2022/12/27 23:42:59;;;;;;;9.70;6.80;;;;;;;0.38;96.38;100235.11;435625;1281;141120;-68
2022/12/27 23:53:25;;;;;;;9.60;5.70;;;;;;;0.39;96.40;100233.20;424557;1274;142360;-67
